Terminal Aerodrome Forecast
Issued by NWS

Current Version | Previous Version | Text Only | Print | Product List | Glossary On
Versions: 1 2 3 4 5 6 7 8 9 10 11 12 13 14 15 16 17
000
FTAK31 PAFA 050521
TAFAUN
TAF
PAUN 050521Z 0506/0606 30005KT P6SM FEW110 BKN200
     FM050900 VRB05KT P6SM VCFG SCT035 BKN050 OVC100
     FM051800 33005KT P6SM SCT035 BKN100=

USA.gov is the U.S. government's official web portal to all federal, state and local government web resources and services.